Time;durP1;ratioP1;P1;durP2;ratioP2;P2;SDS_P1;SDS_P2;PMS_P1;PMS_P2;Temp;Humidity;BMP_temperature;BMP_pressure;BME280_temperature;BME280_humidity;BME280_pressure;Samples;Min_cycle;Max_cycle;Signal;HPM_P1;HPM_P2
2022/07/25 00:01:28;;;;;;;6.88;5.65;;;;;;;21.16;58.55;99011.44;5051838;28;20041;-55
2022/07/25 00:03:53;;;;;;;6.18;5.43;;;;;;;21.13;58.64;99010.00;5052897;28;20080;-56
2022/07/25 00:06:19;;;;;;;6.65;5.93;;;;;;;21.08;58.77;99007.06;5042168;28;20389;-53
2022/07/25 00:08:44;;;;;;;5.85;5.20;;;;;;;21.10;58.86;99004.13;5034415;28;20056;-51
2022/07/25 00:11:10;;;;;;;6.88;5.50;;;;;;;21.07;58.87;99008.97;5032012;28;20944;-54
2022/07/25 00:13:35;;;;;;;7.97;6.03;;;;;;;21.06;59.19;99004.56;5044699;28;20090;-54
2022/07/25 00:16:01;;;;;;;6.57;5.82;;;;;;;21.04;59.29;99000.38;5045731;28;20029;-56
2022/07/25 00:18:26;;;;;;;7.45;5.88;;;;;;;21.02;59.51;99008.75;5033116;28;20041;-56
2022/07/25 00:20:52;;;;;;;8.00;6.03;;;;;;;20.99;59.70;99001.03;5044157;28;20419;-59
2022/07/25 00:23:17;;;;;;;8.40;5.78;;;;;;;20.96;59.79;98995.16;5053303;28;20060;-54
2022/07/25 00:25:43;;;;;;;8.45;5.85;;;;;;;20.94;59.93;99000.81;5049107;28;20116;-52
2022/07/25 00:28:08;;;;;;;10.73;6.18;;;;;;;20.92;59.90;99000.19;5032915;28;20098;-53
2022/07/25 00:30:34;;;;;;;7.13;6.03;;;;;;;20.92;60.17;98997.47;5040654;28;20041;-52
2022/07/25 00:32:59;;;;;;;7.32;6.20;;;;;;;20.88;60.22;98994.34;5052713;28;20033;-50
2022/07/25 00:35:25;;;;;;;8.00;6.15;;;;;;;20.87;60.41;98987.25;5052284;28;20037;-51
2022/07/25 00:37:50;;;;;;;11.45;6.75;;;;;;;20.88;60.60;98996.22;5033034;28;20029;-57
2022/07/25 00:40:16;;;;;;;9.25;6.40;;;;;;;20.82;60.90;98984.28;5037505;28;20029;-55
2022/07/25 00:42:41;;;;;;;9.52;6.60;;;;;;;20.84;60.94;98992.25;5052622;28;20081;-55
2022/07/25 00:45:07;;;;;;;11.48;7.03;;;;;;;20.83;61.28;98985.16;5038593;28;20410;-56
2022/07/25 00:47:33;;;;;;;13.32;7.03;;;;;;;20.80;61.43;98991.84;5049889;28;20029;-54
2022/07/25 00:49:58;;;;;;;16.30;7.50;;;;;;;20.79;61.47;98982.84;5050058;28;20029;-52
2022/07/25 00:52:24;;;;;;;14.50;6.95;;;;;;;20.77;61.52;98984.91;5032263;28;20041;-61
2022/07/25 00:54:50;;;;;;;12.75;7.45;;;;;;;20.72;61.62;98984.69;5032647;28;20041;-52
2022/07/25 00:57:15;;;;;;;12.05;7.50;;;;;;;20.70;61.89;98984.06;5047089;28;20389;-53
2022/07/25 00:59:41;;;;;;;13.23;7.10;;;;;;;20.70;62.05;98984.06;5051431;28;20037;-55
2022/07/25 01:02:06;;;;;;;12.98;7.45;;;;;;;20.69;62.22;98976.97;5033060;28;20504;-53
2022/07/25 01:04:32;;;;;;;12.73;7.45;;;;;;;20.68;62.20;98985.34;5032343;28;20397;-55
2022/07/25 01:06:59;;;;;;;11.00;7.68;;;;;;;20.64;62.52;98991.22;5043768;28;20044;-54
2022/07/25 01:09:25;;;;;;;9.05;7.43;;;;;;;20.61;62.76;98971.75;5051938;28;20025;-57
2022/07/25 01:11:51;;;;;;;10.98;7.60;;;;;;;20.61;62.78;98980.72;5036100;28;20056;-56
2022/07/25 01:14:16;;;;;;;12.65;7.95;;;;;;;20.60;62.94;98970.06;5031809;28;20044;-54
2022/07/25 01:16:42;;;;;;;13.98;7.32;;;;;;;20.62;63.03;98987.03;5033221;28;20466;-51
2022/07/25 01:19:07;;;;;;;10.10;7.15;;;;;;;20.56;63.08;98977.81;5032001;28;20092;-53
2022/07/25 01:21:37;;;;;;;14.02;8.32;;;;;;;20.57;63.26;98979.47;5044227;28;20079;-55
2022/07/25 01:24:02;;;;;;;11.27;7.65;;;;;;;20.58;63.53;98985.78;5051857;28;20117;-54
2022/07/25 01:26:29;;;;;;;11.35;7.60;;;;;;;20.54;63.72;98988.06;5043417;28;20463;-52
2022/07/25 01:28:55;;;;;;;13.85;8.65;;;;;;;20.55;64.17;99003.34;5032025;28;20128;-56
2022/07/25 01:31:21;;;;;;;11.73;7.90;;;;;;;20.56;64.12;98993.31;5046117;28;20029;-55
2022/07/25 01:33:47;;;;;;;10.95;7.78;;;;;;;20.57;64.34;98994.97;5051718;28;20091;-56
2022/07/25 01:36:13;;;;;;;11.73;8.73;;;;;;;20.57;64.39;99001.22;5045566;28;20033;-55
2022/07/25 01:38:38;;;;;;;12.00;8.55;;;;;;;20.55;64.34;98994.34;5031564;28;20032;-56
2022/07/25 01:41:04;;;;;;;12.90;8.98;;;;;;;20.57;64.19;99000.41;5043397;28;20366;-55
2022/07/25 01:43:29;;;;;;;12.55;8.77;;;;;;;20.55;64.48;99002.50;5051525;28;20465;-50
2022/07/25 01:45:55;;;;;;;13.35;8.23;;;;;;;20.56;64.62;99015.06;5046182;28;20033;-50
2022/07/25 01:48:20;;;;;;;14.82;8.73;;;;;;;20.55;64.39;99008.78;5031215;28;20033;-53
2022/07/25 01:50:46;;;;;;;14.60;8.75;;;;;;;20.53;64.37;99010.88;5031658;28;20025;-52
2022/07/25 01:53:11;;;;;;;15.00;8.23;;;;;;;20.53;64.66;99010.88;5031596;28;20044;-51
2022/07/25 01:55:37;;;;;;;15.88;8.32;;;;;;;20.36;64.46;98977.81;5044622;28;20424;-53
2022/07/25 01:58:02;;;;;;;13.85;7.45;;;;;;;20.54;64.74;99011.72;5034865;28;20033;-53
2022/07/25 02:00:29;;;;;;;14.00;8.00;;;;;;;20.54;64.57;99007.09;5051224;28;20032;-57
2022/07/25 02:05:38;;;;;;;12.23;7.25;;;;;;;20.59;64.30;99003.75;5051200;28;20040;-53
2022/07/25 02:08:04;;;;;;;10.70;7.65;;;;;;;20.58;64.23;98996.66;5034212;28;20033;-53
2022/07/25 02:10:30;;;;;;;10.73;7.30;;;;;;;20.63;64.37;99002.28;5051137;28;20035;-54
2022/07/25 02:12:56;;;;;;;12.32;8.38;;;;;;;20.44;64.16;98968.63;5051532;28;20063;-54
2022/07/25 02:15:41;;;;;;;11.55;7.60;;;;;;;20.73;64.04;99005.41;5049971;28;20094;-53
2022/07/25 02:18:07;;;;;;;13.38;7.10;;;;;;;20.75;63.83;98997.91;5046485;28;20030;-57
2022/07/25 02:20:32;;;;;;;14.55;7.80;;;;;;;20.80;63.78;98994.56;5031336;28;20116;-58
2022/07/25 02:22:57;;;;;;;10.77;7.50;;;;;;;20.86;63.62;98995.59;5031412;28;20068;-55
2022/07/25 02:25:23;;;;;;;15.57;7.35;;;;;;;20.97;63.33;98999.56;5031098;28;20129;-51
2022/07/25 02:27:49;;;;;;;11.55;7.72;;;;;;;21.05;63.25;99002.91;5031915;28;20038;-52
2022/07/25 02:30:14;;;;;;;9.80;8.00;;;;;;;21.16;62.86;99006.00;5050766;28;20037;-53
2022/07/25 02:32:39;;;;;;;10.93;7.38;;;;;;;21.22;61.96;98995.09;5051056;28;20044;-50
2022/07/25 02:35:06;;;;;;;15.20;8.13;;;;;;;21.43;62.02;99016.81;5050666;28;20109;-54
2022/07/25 02:37:32;;;;;;;11.93;7.65;;;;;;;21.52;61.90;99012.81;5050836;28;20461;-52
2022/07/25 02:39:57;;;;;;;11.35;7.75;;;;;;;21.62;61.41;99007.72;5031960;28;20041;-55
2022/07/25 02:42:23;;;;;;;15.32;7.45;;;;;;;21.67;60.93;98995.38;5036710;28;20036;-55
2022/07/25 02:44:48;;;;;;;11.02;7.53;;;;;;;21.68;60.83;98995.16;5050608;28;20033;-52
2022/07/25 02:47:14;;;;;;;13.30;7.57;;;;;;;21.82;60.46;99012.28;5050583;28;20033;-52
2022/07/25 02:49:39;;;;;;;12.18;7.43;;;;;;;21.84;60.42;99012.06;5034016;28;20056;-53
2022/07/25 02:52:05;;;;;;;10.45;7.80;;;;;;;21.80;60.33;99007.03;5030646;28;20033;-51
2022/07/25 02:54:30;;;;;;;13.80;7.32;;;;;;;21.85;60.52;99009.09;5030785;28;20079;-61
2022/07/25 02:56:56;;;;;;;11.32;6.95;;;;;;;21.73;60.38;98976.25;5031035;28;20053;-52
2022/07/25 02:59:21;;;;;;;12.90;6.97;;;;;;;21.96;59.86;99004.03;5043575;28;20112;-55
2022/07/25 03:01:46;;;;;;;13.07;6.10;;;;;;;21.99;59.75;99000.88;5050532;28;20061;-55
2022/07/25 03:04:12;;;;;;;8.65;5.82;;;;;;;21.92;59.02;98979.09;5049998;28;20095;-57
2022/07/25 03:06:37;;;;;;;7.00;5.47;;;;;;;22.13;58.87;98994.25;5042336;28;20048;-57
2022/07/25 03:09:03;;;;;;;7.90;5.60;;;;;;;22.15;58.84;98992.16;5043721;28;20041;-57
2022/07/25 03:11:29;;;;;;;6.85;5.55;;;;;;;22.24;58.45;98987.25;5054352;28;20112;-56
2022/07/25 03:13:54;;;;;;;6.75;5.80;;;;;;;22.31;58.50;98995.41;5054164;28;20100;-53
2022/07/25 03:16:20;;;;;;;7.55;5.78;;;;;;;22.40;58.46;98996.78;5047336;28;20036;-55
2022/07/25 03:18:45;;;;;;;7.70;5.95;;;;;;;22.46;58.24;98995.06;5041159;28;20033;-50
2022/07/25 03:21:11;;;;;;;8.45;5.75;;;;;;;22.51;57.94;98987.94;5054272;28;20482;-56
2022/07/25 03:23:36;;;;;;;9.82;5.70;;;;;;;22.62;57.01;98985.50;5053964;28;20029;-51
2022/07/25 03:26:02;;;;;;;10.10;5.78;;;;;;;22.74;57.28;99000.09;5054169;28;20476;-61
2022/07/25 03:28:27;;;;;;;8.52;5.55;;;;;;;22.93;56.74;98991.97;5049488;28;20469;-54
2022/07/25 03:30:53;;;;;;;9.63;6.07;;;;;;;23.22;56.01;98990.38;5034078;28;20108;-54
2022/07/25 03:33:19;;;;;;;7.88;5.70;;;;;;;23.77;54.55;98999.63;5033910;28;20029;-51
2022/07/25 03:35:44;;;;;;;9.93;6.40;;;;;;;24.43;52.59;98987.94;5033970;28;20119;-55
2022/07/25 03:38:10;;;;;;;13.35;5.95;;;;;;;25.14;51.10;98978.09;5035577;28;20116;-54
2022/07/25 03:40:35;;;;;;;12.80;5.65;;;;;;;25.83;49.09;98973.72;5052393;28;20041;-54
2022/07/25 03:43:01;;;;;;;19.73;6.18;;;;;;;26.45;47.14;98983.06;5053861;28;20112;-55
2022/07/25 03:45:26;;;;;;;13.02;5.85;;;;;;;27.13;45.55;98982.16;5053899;28;20043;-55
2022/07/25 03:47:52;;;;;;;10.15;5.53;;;;;;;27.78;43.84;98979.69;5050269;28;20052;-58
2022/07/25 03:50:17;;;;;;;9.75;6.28;;;;;;;28.41;42.38;98981.94;5033590;28;20117;-54
2022/07/25 03:52:43;;;;;;;8.30;5.50;;;;;;;28.93;41.13;98985.91;5039591;28;20037;-55
2022/07/25 03:55:09;;;;;;;12.00;5.35;;;;;;;29.40;39.88;98983.41;5053717;28;20025;-53
2022/07/25 03:57:37;;;;;;;9.82;5.72;;;;;;;29.88;38.97;98991.56;5052503;28;20045;-50
2022/07/25 04:00:04;;;;;;;10.73;6.10;;;;;;;30.34;38.15;98999.13;5033532;28;20038;-55
2022/07/25 04:02:29;;;;;;;8.25;5.40;;;;;;;30.93;37.07;98990.53;5033288;28;20046;-53
2022/07/25 04:04:55;;;;;;;9.73;5.63;;;;;;;31.67;35.14;98989.19;5033339;28;20111;-55
2022/07/25 04:07:20;;;;;;;8.32;5.70;;;;;;;32.38;34.00;98986.25;5033274;28;20030;-53
2022/07/25 04:09:46;;;;;;;6.18;5.07;;;;;;;32.96;32.82;98985.47;5051201;28;20064;-55
2022/07/25 04:12:11;;;;;;;7.38;5.53;;;;;;;33.46;31.68;98982.41;5050746;28;20134;-54
2022/07/25 04:14:37;;;;;;;9.10;5.15;;;;;;;33.99;31.28;98983.38;5042670;28;20025;-54
2022/07/25 04:17:02;;;;;;;8.27;5.18;;;;;;;34.53;29.95;98982.28;5040129;28;20017;-51
2022/07/25 04:19:28;;;;;;;7.32;4.90;;;;;;;34.87;29.57;98986.66;5041437;28;20052;-53
2022/07/25 04:21:53;;;;;;;7.63;5.68;;;;;;;35.36;28.74;98984.34;5041882;28;20021;-51
2022/07/25 04:24:19;;;;;;;6.07;5.47;;;;;;;35.84;28.26;98980.25;5040520;28;20064;-55
2022/07/25 04:26:44;;;;;;;6.75;5.47;;;;;;;36.45;26.92;98979.94;5042428;28;20025;-55
2022/07/25 04:29:10;;;;;;;6.22;5.63;;;;;;;37.00;26.56;98980.75;5039401;28;20448;-54
2022/07/25 04:31:35;;;;;;;6.28;5.32;;;;;;;37.51;25.71;98986.03;5041744;28;20449;-60
2022/07/25 04:34:01;;;;;;;5.85;5.30;;;;;;;37.83;25.22;98980.31;5040630;28;20033;-55
2022/07/25 04:36:26;;;;;;;6.72;6.00;;;;;;;38.24;24.57;98976.25;5042151;28;20025;-56
2022/07/25 04:38:52;;;;;;;9.23;5.43;;;;;;;38.95;23.37;98984.47;5039253;28;20083;-54
2022/07/25 04:41:18;;;;;;;6.10;5.50;;;;;;;39.41;22.79;98973.59;5041192;28;20038;-56
2022/07/25 04:43:43;;;;;;;5.53;5.03;;;;;;;39.82;22.47;98971.19;5040512;28;20048;-57
2022/07/25 04:46:09;;;;;;;10.20;5.40;;;;;;;40.24;21.78;98970.31;5041503;28;20081;-56
2022/07/25 04:48:34;;;;;;;6.32;5.82;;;;;;;40.62;21.53;98975.72;5039656;28;20082;-57
2022/07/25 04:51:00;;;;;;;6.32;5.53;;;;;;;41.09;21.03;98982.09;5042160;28;20033;-56
2022/07/25 04:53:25;;;;;;;7.07;5.50;;;;;;;41.36;20.33;98973.34;5040634;28;20312;-59
2022/07/25 04:55:51;;;;;;;5.82;5.22;;;;;;;41.56;20.39;98977.19;5041312;28;20438;-57
2022/07/25 04:58:17;;;;;;;6.03;5.53;;;;;;;41.94;19.84;98977.94;5041910;28;20029;-57
2022/07/25 05:00:43;;;;;;;6.25;5.68;;;;;;;42.18;19.22;98957.38;5040150;28;20075;-56
2022/07/25 05:03:09;;;;;;;6.75;5.60;;;;;;;42.48;19.37;98976.69;5041145;28;20044;-57
2022/07/25 05:05:35;;;;;;;5.97;5.32;;;;;;;42.88;18.98;98986.19;5040636;28;20044;-54
2022/07/25 05:08:00;;;;;;;6.35;5.75;;;;;;;43.24;18.56;98973.00;5042173;28;20025;-56
2022/07/25 05:10:28;;;;;;;5.90;5.32;;;;;;;43.83;17.90;98986.44;5039983;28;20475;-58
2022/07/25 05:12:54;;;;;;;8.95;6.00;;;;;;;44.09;17.43;98977.31;5040057;28;20029;-58
2022/07/25 05:15:20;;;;;;;9.48;5.43;;;;;;;44.48;17.13;98981.31;5039375;28;20080;-59
2022/07/25 05:17:45;;;;;;;6.55;5.30;;;;;;;45.01;16.83;98975.84;5041601;28;20019;-58
2022/07/25 05:20:12;;;;;;;6.35;5.75;;;;;;;45.54;16.26;98988.34;5040825;28;20033;-57
2022/07/25 05:22:38;;;;;;;7.40;5.78;;;;;;;46.04;15.28;98981.75;5039784;28;20465;-54
2022/07/25 05:25:08;;;;;;;6.78;5.22;;;;;;;46.56;15.19;98986.84;5039991;28;20026;-58
2022/07/25 05:27:34;;;;;;;7.75;5.15;;;;;;;46.58;15.17;98985.22;5040244;28;20385;-56
2022/07/25 05:29:59;;;;;;;5.55;4.90;;;;;;;46.57;15.51;98985.63;5040475;28;20033;-55
2022/07/25 05:32:25;;;;;;;5.80;5.13;;;;;;;46.70;14.51;98984.13;5039467;28;20036;-58
2022/07/25 05:34:51;;;;;;;5.30;4.75;;;;;;;46.50;14.60;98971.41;5039374;28;20045;-57
2022/07/25 05:37:16;;;;;;;8.40;4.72;;;;;;;46.69;14.53;98978.88;5040447;28;20064;-58
2022/07/25 05:39:42;;;;;;;5.65;4.97;;;;;;;46.96;14.27;98976.69;5038599;28;20025;-59
2022/07/25 05:42:08;;;;;;;7.88;5.22;;;;;;;47.11;14.27;98973.97;5035203;28;20112;-60
2022/07/25 05:44:33;;;;;;;5.22;4.70;;;;;;;47.46;13.72;98975.44;5036441;28;20029;-60
2022/07/25 05:46:59;;;;;;;7.50;5.28;;;;;;;47.96;13.23;98976.91;5030693;28;20029;-58
2022/07/25 05:49:24;;;;;;;5.15;4.65;;;;;;;47.09;14.14;98968.69;5030504;28;20029;-58
2022/07/25 05:51:50;;;;;;;5.20;4.60;;;;;;;45.79;14.92;98970.16;5031365;28;20037;-55
2022/07/25 05:54:16;;;;;;;4.90;4.40;;;;;;;44.50;16.04;98967.63;5047917;28;20037;-58
2022/07/25 05:56:41;;;;;;;4.88;4.47;;;;;;;42.92;17.89;98966.59;5055639;28;20028;-56
2022/07/25 05:59:07;;;;;;;5.95;5.40;;;;;;;41.17;19.35;98946.69;5051176;28;20025;-61
2022/07/25 06:01:32;;;;;;;5.70;4.72;;;;;;;40.13;20.42;98965.16;5051062;28;20125;-56
2022/07/25 06:03:58;;;;;;;5.88;5.28;;;;;;;38.95;21.84;98954.53;5036093;28;20076;-58
2022/07/25 06:06:24;;;;;;;5.40;4.90;;;;;;;38.26;22.73;98953.53;5031055;28;20063;-57
2022/07/25 06:08:49;;;;;;;5.45;4.93;;;;;;;37.53;23.52;98955.81;5030636;28;20025;-57
2022/07/25 06:11:15;;;;;;;5.13;4.65;;;;;;;36.80;24.69;98964.56;5031172;28;20367;-57
2022/07/25 06:13:40;;;;;;;7.72;5.15;;;;;;;36.17;25.42;98974.50;5032152;28;20030;-57
2022/07/25 06:16:06;;;;;;;6.18;5.10;;;;;;;35.60;26.48;98956.28;5049030;28;20108;-58
2022/07/25 06:18:31;;;;;;;5.90;5.40;;;;;;;35.27;26.79;98959.19;5031013;28;20421;-57
2022/07/25 06:20:57;;;;;;;10.13;5.75;;;;;;;34.97;27.36;98955.88;5030775;28;20915;-57
2022/07/25 06:23:23;;;;;;;8.52;5.55;;;;;;;34.88;28.13;98952.16;5031240;28;20362;-56
2022/07/25 06:25:48;;;;;;;7.60;5.53;;;;;;;37.19;25.16;98955.38;5029622;28;20037;-58
2022/07/25 06:28:14;;;;;;;7.40;5.35;;;;;;;39.82;21.60;98951.56;5030671;28;20042;-55
2022/07/25 06:30:42;;;;;;;6.55;4.93;;;;;;;39.71;21.45;98963.16;5034095;28;20025;-56
2022/07/25 06:33:08;;;;;;;7.45;5.70;;;;;;;40.83;20.18;98960.81;5050625;28;20029;-57
2022/07/25 06:35:33;;;;;;;5.53;5.03;;;;;;;43.28;17.59;98957.00;5036995;28;20324;-56
2022/07/25 06:37:59;;;;;;;5.75;5.10;;;;;;;44.86;16.19;98962.66;5033268;28;20064;-54
2022/07/25 06:40:24;;;;;;;7.10;5.43;;;;;;;43.85;16.83;98958.72;5047023;28;20033;-57
2022/07/25 06:42:50;;;;;;;5.43;4.82;;;;;;;43.04;17.72;98960.84;5032871;28;20120;-56
2022/07/25 06:45:15;;;;;;;5.95;5.30;;;;;;;42.86;18.26;98963.19;5035800;28;20105;-57
2022/07/25 06:47:42;;;;;;;5.35;4.95;;;;;;;42.73;18.21;98966.13;5034654;28;20453;-56
2022/07/25 06:50:11;;;;;;;7.32;5.53;;;;;;;41.95;18.94;98971.97;5035242;28;20524;-59
2022/07/25 06:52:38;;;;;;;8.18;5.40;;;;;;;40.36;20.54;98952.75;5034625;28;20040;-58
2022/07/25 06:55:06;;;;;;;5.60;5.10;;;;;;;38.66;22.44;98961.69;5040194;28;20041;-55
2022/07/25 06:57:32;;;;;;;7.47;5.03;;;;;;;37.36;23.82;98962.16;5054716;28;20021;-54
2022/07/25 06:59:57;;;;;;;7.68;5.38;;;;;;;36.48;25.46;98962.56;5053131;28;20091;-59
2022/07/25 07:02:23;;;;;;;5.78;4.82;;;;;;;35.88;26.35;98961.75;5050987;28;20037;-57
2022/07/25 07:04:49;;;;;;;5.72;5.10;;;;;;;35.69;26.21;98958.31;5045564;28;20082;-60
2022/07/25 07:07:15;;;;;;;7.68;4.95;;;;;;;36.35;25.58;98960.66;5045439;28;20063;-60
2022/07/25 07:09:41;;;;;;;8.80;5.10;;;;;;;36.56;25.36;98937.88;5051166;28;20041;-66
2022/07/25 07:12:08;;;;;;;5.35;4.45;;;;;;;36.84;24.53;98962.75;5045206;28;20087;-62
2022/07/25 07:14:33;;;;;;;5.63;5.07;;;;;;;36.89;24.38;98957.03;5050446;28;20363;-62
2022/07/25 07:16:59;;;;;;;8.77;5.43;;;;;;;36.82;24.59;98962.25;5050845;28;20071;-59
2022/07/25 07:19:25;;;;;;;8.23;5.15;;;;;;;36.57;25.15;98957.06;5039536;28;20047;-60
2022/07/25 07:21:50;;;;;;;5.82;4.78;;;;;;;36.34;25.58;98956.22;5033823;28;20040;-60
2022/07/25 07:24:17;;;;;;;6.22;5.63;;;;;;;36.20;25.80;98968.28;5034249;28;20029;-60
2022/07/25 07:26:42;;;;;;;10.73;5.40;;;;;;;36.41;26.23;98967.75;5053788;28;20056;-59
2022/07/25 07:29:08;;;;;;;6.47;5.13;;;;;;;37.28;24.78;98955.41;5044985;28;20107;-60
2022/07/25 07:31:34;;;;;;;6.25;5.30;;;;;;;37.65;24.53;98965.53;5033681;28;20030;-58
2022/07/25 07:33:59;;;;;;;7.03;5.30;;;;;;;37.92;24.10;98961.56;5046551;28;20045;-60
2022/07/25 07:36:25;;;;;;;8.55;5.60;;;;;;;38.45;23.32;98967.16;5040947;28;20055;-59
2022/07/25 07:38:51;;;;;;;7.57;5.90;;;;;;;39.60;21.72;98965.56;5053601;28;20064;-61
2022/07/25 07:41:18;;;;;;;7.43;5.28;;;;;;;40.02;21.43;98958.31;5050870;28;20020;-57
2022/07/25 07:43:43;;;;;;;5.78;5.28;;;;;;;39.71;21.59;98965.13;5041669;28;20029;-58
2022/07/25 07:46:09;;;;;;;5.93;5.32;;;;;;;39.09;22.66;98961.88;5033809;28;20083;-59
2022/07/25 07:48:34;;;;;;;5.68;5.18;;;;;;;38.53;22.88;98962.72;5033148;28;20038;-61
2022/07/25 07:51:01;;;;;;;7.80;5.60;;;;;;;37.86;24.09;98962.91;5033706;28;20036;-60
2022/07/25 07:56:11;;;;;;;7.07;5.85;;;;;;;37.34;24.80;98967.25;5036255;28;20083;-59
2022/07/25 07:58:36;;;;;;;8.35;5.32;;;;;;;40.31;21.24;98960.22;5033287;28;20412;-59
2022/07/25 08:01:03;;;;;;;7.40;5.80;;;;;;;41.65;19.43;98963.03;5047701;28;20039;-58
2022/07/25 08:03:28;;;;;;;5.13;4.72;;;;;;;41.06;19.34;98965.16;5052575;28;20053;-58
2022/07/25 08:05:54;;;;;;;6.22;4.82;;;;;;;40.00;20.86;98955.03;5053397;28;20094;-60
2022/07/25 08:08:19;;;;;;;5.32;4.82;;;;;;;40.12;20.50;98941.09;5048572;28;20037;-59
2022/07/25 08:10:47;;;;;;;5.10;4.65;;;;;;;40.02;20.83;98958.31;5038100;28;20426;-60
2022/07/25 08:13:19;;;;;;;4.85;4.53;;;;;;;40.85;20.02;98954.84;5030921;28;20473;-68
2022/07/25 08:15:48;;;;;;;5.80;4.47;;;;;;;42.97;17.18;98953.06;5035245;28;20040;-59
2022/07/25 08:18:14;;;;;;;5.93;4.65;;;;;;;45.00;15.40;98951.63;5041955;28;20033;-62
2022/07/25 08:20:40;;;;;;;4.10;3.80;;;;;;;46.44;13.71;98957.56;5052210;28;20025;-59
2022/07/25 08:23:07;;;;;;;5.15;3.85;;;;;;;46.76;13.57;98961.13;5052339;28;20151;-60
2022/07/25 08:25:34;;;;;;;5.20;3.03;;;;;;;45.66;13.47;98963.91;5052696;28;20047;-61
2022/07/25 08:27:59;;;;;;;2.90;2.70;;;;;;;43.80;15.20;98951.34;5039120;28;20044;-61
2022/07/25 08:30:25;;;;;;;3.75;3.17;;;;;;;42.09;16.75;98951.09;5032481;28;20444;-61
2022/07/25 08:33:02;;;;;;;3.72;3.20;;;;;;;40.85;17.62;98954.84;5037939;28;20025;-62
2022/07/25 08:35:28;;;;;;;3.30;2.60;;;;;;;39.25;18.77;98934.94;5032336;28;20136;-60
2022/07/25 08:37:55;;;;;;;5.00;3.50;;;;;;;38.23;20.44;98959.78;5043194;28;20440;-63
2022/07/25 08:40:23;;;;;;;4.82;3.60;;;;;;;37.38;22.06;98959.84;5049211;28;20029;-59
2022/07/25 08:42:49;;;;;;;5.07;4.65;;;;;;;36.56;23.93;98955.44;5032045;28;20047;-59
2022/07/25 08:45:18;;;;;;;4.90;4.40;;;;;;;35.49;25.26;98955.66;5050288;28;20040;-66
2022/07/25 08:47:45;;;;;;;5.20;4.80;;;;;;;34.92;26.41;98961.53;5042102;28;20041;-61
2022/07/25 08:50:14;;;;;;;5.78;4.75;;;;;;;34.52;26.31;98944.50;5047171;28;20029;-61
2022/07/25 08:52:42;;;;;;;6.35;5.03;;;;;;;34.53;26.72;98960.84;5049910;28;20043;-60
2022/07/25 08:55:11;;;;;;;4.97;4.47;;;;;;;34.25;27.83;98965.50;5051570;28;20033;-60
2022/07/25 08:57:40;;;;;;;6.60;5.25;;;;;;;33.83;28.53;98963.31;5036212;28;20036;-61
2022/07/25 09:00:06;;;;;;;8.45;5.50;;;;;;;33.51;29.82;98962.06;5049992;28;20420;-60
2022/07/25 09:02:32;;;;;;;7.10;5.75;;;;;;;33.16;30.07;98939.22;5051680;28;20123;-64
2022/07/25 09:04:58;;;;;;;6.90;5.72;;;;;;;33.04;30.56;98965.44;5048881;28;20125;-60
2022/07/25 09:07:30;;;;;;;6.20;5.60;;;;;;;32.99;30.29;98967.44;5050902;28;20041;-60
2022/07/25 09:09:56;;;;;;;7.88;5.40;;;;;;;32.89;30.77;98960.03;5051029;28;20040;-62
2022/07/25 09:12:27;;;;;;;7.25;5.00;;;;;;;33.00;30.12;98964.34;5040826;28;20481;-62
2022/07/25 09:14:53;;;;;;;7.38;4.90;;;;;;;32.58;30.17;98940.94;5031148;28;20048;-63
2022/07/25 09:17:19;;;;;;;5.32;4.32;;;;;;;32.47;30.14;98962.38;5038457;28;20033;-62
2022/07/25 09:19:52;;;;;;;7.60;4.63;;;;;;;32.41;30.24;98957.97;5045538;28;20032;-61
2022/07/25 09:22:18;;;;;;;4.57;4.28;;;;;;;32.05;30.98;98959.91;5049921;28;20492;-62
2022/07/25 09:24:44;;;;;;;4.68;4.38;;;;;;;31.98;31.11;98961.34;5051090;28;20107;-61
2022/07/25 09:27:10;;;;;;;5.07;4.57;;;;;;;32.03;31.40;98958.53;5046788;28;20029;-61
2022/07/25 09:29:39;;;;;;;4.90;4.43;;;;;;;32.11;31.60;98940.47;5050494;28;20037;-61
2022/07/25 09:32:21;;;;;;;6.72;4.53;;;;;;;32.42;31.50;98962.41;5050912;28;20378;-61
2022/07/25 09:34:48;;;;;;;6.20;4.82;;;;;;;32.25;32.24;98960.88;5038326;28;20030;-60
2022/07/25 09:37:17;;;;;;;4.97;4.47;;;;;;;32.27;31.69;98935.63;5040259;28;20051;-60
2022/07/25 09:39:48;;;;;;;5.40;4.90;;;;;;;32.61;32.06;98956.97;5051519;28;20032;-62
2022/07/25 09:42:25;;;;;;;7.97;4.95;;;;;;;32.74;31.44;98956.28;5045159;28;20033;-62
2022/07/25 09:45:11;;;;;;;6.18;4.78;;;;;;;32.88;31.66;98961.16;5043521;28;20087;-62
2022/07/25 09:48:01;;;;;;;7.30;4.80;;;;;;;33.04;30.95;98970.97;5042231;28;20026;-63
2022/07/25 09:50:29;;;;;;;10.88;5.45;;;;;;;32.56;31.69;98945.94;5047764;28;20041;-63
2022/07/25 09:52:57;;;;;;;5.22;4.70;;;;;;;32.35;32.08;98954.44;5051037;28;20043;-63
2022/07/25 09:55:23;;;;;;;6.30;4.90;;;;;;;32.08;32.91;98955.75;5032911;28;20600;-62
2022/07/25 09:57:51;;;;;;;6.18;4.97;;;;;;;31.78;33.31;98952.06;5034746;28;20090;-60
2022/07/25 10:00:25;;;;;;;6.05;5.28;;;;;;;31.70;33.42;98955.41;5042093;28;20033;-61
2022/07/25 10:02:51;;;;;;;7.53;5.82;;;;;;;31.51;33.59;98947.75;5050885;28;20052;-61
2022/07/25 10:05:41;;;;;;;6.22;5.63;;;;;;;31.67;33.31;98956.78;5048955;28;20116;-65
2022/07/25 10:08:07;;;;;;;11.02;6.03;;;;;;;31.51;34.28;98947.75;5042542;28;20056;-63
2022/07/25 10:10:39;;;;;;;7.70;5.30;;;;;;;31.56;33.55;98949.69;5048396;28;20075;-63
2022/07/25 10:13:16;;;;;;;8.98;5.72;;;;;;;31.51;33.15;98950.53;5050268;28;20025;-62
2022/07/25 10:15:50;;;;;;;7.57;5.85;;;;;;;31.27;33.68;98953.94;5049966;28;20047;-59
2022/07/25 10:18:20;;;;;;;6.70;6.10;;;;;;;30.85;34.30;98944.94;5031199;28;20094;-59
2022/07/25 10:20:48;;;;;;;7.28;5.60;;;;;;;30.55;34.99;98954.09;5049286;28;20122;-61
2022/07/25 10:23:22;;;;;;;7.75;5.43;;;;;;;30.46;35.00;98920.69;5050775;28;20033;-59
2022/07/25 10:26:12;;;;;;;6.88;5.63;;;;;;;30.93;33.72;98949.06;5049555;28;20112;-61
2022/07/25 10:28:38;;;;;;;26.60;7.53;;;;;;;30.84;34.10;98943.28;5045786;28;20037;-63
2022/07/25 10:31:15;;;;;;;8.82;6.60;;;;;;;30.78;33.97;98930.59;5028845;28;20048;-60
2022/07/25 10:33:42;;;;;;;9.07;5.63;;;;;;;30.58;34.45;98931.44;5040258;28;20040;-62
2022/07/25 10:36:09;;;;;;;5.63;5.22;;;;;;;30.58;34.25;98936.94;5048801;28;20478;-60
2022/07/25 10:38:41;;;;;;;5.63;5.13;;;;;;;30.75;34.73;98945.78;5046626;28;20032;-59
2022/07/25 10:41:08;;;;;;;5.70;5.20;;;;;;;30.77;34.36;98929.75;5041362;28;20033;-61
2022/07/25 10:43:38;;;;;;;5.18;4.78;;;;;;;30.90;34.29;98935.81;5042622;28;20040;-61
2022/07/25 10:46:17;;;;;;;6.82;5.20;;;;;;;30.95;34.34;98941.31;5029119;28;20033;-61
2022/07/25 10:48:44;;;;;;;5.78;5.28;;;;;;;30.70;34.25;98923.72;5029152;28;20749;-63
2022/07/25 10:51:11;;;;;;;6.03;5.53;;;;;;;30.59;34.38;98928.41;5044566;28;20029;-62
2022/07/25 10:53:46;;;;;;;5.38;4.97;;;;;;;30.66;34.37;98928.16;5050747;28;20025;-62
2022/07/25 10:56:21;;;;;;;6.20;5.60;;;;;;;30.64;34.85;98930.38;5050505;28;20029;-61
2022/07/25 10:58:52;;;;;;;5.90;5.30;;;;;;;30.71;35.51;98930.91;5032019;28;20504;-65
2022/07/25 11:01:32;;;;;;;5.97;5.38;;;;;;;30.79;34.75;98922.03;5040097;28;20392;-66
2022/07/25 11:04:01;;;;;;;5.78;5.28;;;;;;;30.86;34.40;98927.25;5064708;28;20139;-61
2022/07/25 11:06:37;;;;;;;5.20;4.72;;;;;;;31.00;33.99;98924.72;5049626;28;20504;-63
2022/07/25 11:09:16;;;;;;;5.90;5.32;;;;;;;31.14;33.66;98921.38;5049930;28;20150;-59
2022/07/25 11:11:47;;;;;;;6.20;5.22;;;;;;;31.04;33.93;98920.28;5037184;28;20064;-60
2022/07/25 11:14:15;;;;;;;7.28;5.45;;;;;;;31.04;33.77;98920.28;5030262;28;20124;-61
2022/07/25 11:16:45;;;;;;;7.88;5.88;;;;;;;31.07;33.25;98928.00;5028185;28;20029;-60
2022/07/25 11:19:26;;;;;;;5.95;5.38;;;;;;;31.14;32.88;98927.72;5029417;28;20029;-60
2022/07/25 11:21:56;;;;;;;6.03;5.53;;;;;;;31.02;32.85;98916.97;5029649;28;20037;-62
2022/07/25 11:24:39;;;;;;;6.22;5.35;;;;;;;31.04;33.20;98909.22;5032173;28;20044;-61
2022/07/25 11:27:05;;;;;;;5.80;5.20;;;;;;;31.03;33.04;98918.63;5033842;28;20381;-61
2022/07/25 11:29:31;;;;;;;5.88;5.28;;;;;;;31.13;32.81;98914.19;5033159;28;20100;-61
2022/07/25 11:31:58;;;;;;;5.85;5.30;;;;;;;31.32;32.62;98911.63;5047433;28;20520;-60
2022/07/25 11:34:27;;;;;;;6.13;5.32;;;;;;;31.42;32.53;98916.28;5053178;28;20032;-60
2022/07/25 11:36:56;;;;;;;5.45;5.05;;;;;;;31.45;32.81;98910.19;5053854;28;20028;-61